Time;durP1;ratioP1;P1;durP2;ratioP2;P2;SDS_P1;SDS_P2;PMS_P1;PMS_P2;Temp;Humidity;BMP_temperature;BMP_pressure;BME280_temperature;BME280_humidity;BME280_pressure;Samples;Min_cycle;Max_cycle;Signal;HPM_P1;HPM_P2
2022/01/01 00:00:24;;;;;;;143.13;64.77;;;4.90;99.90;;;;;;4205753;28;20028;-56
2022/01/01 00:02:25;;;;;;;142.07;63.40;;;4.80;99.90;;;;;;4207437;28;20024;-54
2022/01/01 00:04:26;;;;;;;138.77;63.77;;;4.80;99.90;;;;;;4205877;28;20092;-52
2022/01/01 00:06:28;;;;;;;130.73;59.23;;;4.80;99.90;;;;;;4207596;28;20073;-56
2022/01/01 00:08:29;;;;;;;119.23;55.80;;;4.90;99.90;;;;;;4206551;28;20028;-56
2022/01/01 00:10:31;;;;;;;120.33;52.63;;;4.90;99.90;;;;;;4207524;28;20093;-56
2022/01/01 00:12:33;;;;;;;110.60;47.73;;;4.90;99.90;;;;;;4205941;28;20024;-56
2022/01/01 00:14:35;;;;;;;129.17;56.57;;;4.90;99.90;;;;;;4207007;28;20028;-58
2022/01/01 00:16:37;;;;;;;106.50;48.73;;;4.90;99.90;;;;;;4206552;28;20021;-56
2022/01/01 00:18:38;;;;;;;114.17;50.93;;;4.80;99.90;;;;;;4207244;28;20051;-52
2022/01/01 00:20:40;;;;;;;113.03;52.53;;;4.80;99.90;;;;;;4206290;28;20048;-54
2022/01/01 00:22:42;;;;;;;97.83;46.20;;;4.80;99.90;;;;;;4204874;28;20086;-57
2022/01/01 00:24:44;;;;;;;103.53;46.50;;;4.80;99.90;;;;;;4206360;28;20500;-54
2022/01/01 00:26:45;;;;;;;95.73;45.10;;;4.80;99.90;;;;;;4205688;28;20024;-54
2022/01/01 00:28:46;;;;;;;80.53;38.40;;;4.80;99.90;;;;;;4207599;28;20546;-55
2022/01/01 00:30:47;;;;;;;93.83;40.37;;;4.80;99.90;;;;;;4206086;28;20036;-55
2022/01/01 00:32:48;;;;;;;91.67;41.30;;;4.80;99.90;;;;;;4207234;28;20105;-57
2022/01/01 00:34:50;;;;;;;95.10;44.10;;;4.80;99.90;;;;;;4206136;28;20318;-57
2022/01/01 00:36:51;;;;;;;89.73;41.70;;;4.80;99.90;;;;;;4207534;28;20277;-56
2022/01/01 00:38:53;;;;;;;97.57;43.73;;;4.80;99.90;;;;;;4205877;28;20028;-57
2022/01/01 00:40:54;;;;;;;91.53;42.27;;;4.80;99.90;;;;;;4209459;28;20350;-55
2022/01/01 00:42:55;;;;;;;94.93;44.67;;;4.70;99.90;;;;;;4209598;28;20028;-56
2022/01/01 00:44:56;;;;;;;78.20;35.33;;;4.70;99.90;;;;;;4208788;28;20032;-57
2022/01/01 00:46:57;;;;;;;96.37;38.37;;;4.70;99.90;;;;;;4209034;28;20036;-57
2022/01/01 00:48:58;;;;;;;82.73;38.53;;;4.70;99.90;;;;;;4210213;28;20330;-53
2022/01/01 00:50:59;;;;;;;83.57;35.17;;;4.60;99.90;;;;;;4209282;28;20304;-58
2022/01/01 00:53:01;;;;;;;83.03;35.67;;;4.60;99.90;;;;;;4209951;28;20081;-57
2022/01/01 00:55:02;;;;;;;80.97;36.30;;;4.60;99.90;;;;;;4209994;28;20317;-56
2022/01/01 00:57:03;;;;;;;70.77;31.30;;;4.60;99.90;;;;;;4207296;28;20048;-50
2022/01/01 00:59:04;;;;;;;70.93;31.07;;;4.60;99.90;;;;;;4210071;28;20036;-58
2022/01/01 01:01:06;;;;;;;74.90;33.43;;;4.60;99.90;;;;;;4208997;28;20310;-55
2022/01/01 01:03:12;;;;;;;80.43;36.17;;;4.60;99.90;;;;;;4210202;28;20097;-60
2022/01/01 01:05:14;;;;;;;81.47;34.33;;;4.60;99.90;;;;;;4208859;28;20028;-59
2022/01/01 01:07:15;;;;;;;103.10;40.33;;;4.60;99.90;;;;;;4210032;28;20269;-56
2022/01/01 01:09:17;;;;;;;101.47;38.87;;;4.60;99.90;;;;;;4208542;28;20522;-56
2022/01/01 01:11:18;;;;;;;103.97;41.50;;;4.60;99.90;;;;;;4210053;28;20349;-57
2022/01/01 01:13:20;;;;;;;102.80;40.83;;;4.60;99.90;;;;;;4208927;28;20330;-55
2022/01/01 01:15:21;;;;;;;91.37;39.17;;;4.60;99.90;;;;;;4209982;28;20257;-57
2022/01/01 01:17:23;;;;;;;95.87;39.97;;;4.60;99.90;;;;;;4206775;28;20343;-56
2022/01/01 01:19:24;;;;;;;95.93;40.00;;;4.60;99.90;;;;;;4210078;28;20016;-57
2022/01/01 01:21:26;;;;;;;88.40;38.87;;;4.60;99.90;;;;;;4209203;28;20310;-56
2022/01/01 01:23:27;;;;;;;102.43;42.77;;;4.50;99.90;;;;;;4209250;28;20089;-54
2022/01/01 01:25:31;;;;;;;106.63;44.03;;;4.60;99.90;;;;;;4208961;28;20754;-57
2022/01/01 01:27:34;;;;;;;96.57;40.53;;;4.60;99.90;;;;;;4208531;28;20795;-57
2022/01/01 01:29:41;;;;;;;99.47;43.20;;;4.50;99.90;;;;;;4209138;28;20033;-57
2022/01/01 01:31:42;;;;;;;77.57;34.10;;;4.50;99.90;;;;;;4208450;28;20838;-58
2022/01/01 01:33:44;;;;;;;88.57;32.10;;;4.60;99.90;;;;;;4209503;28;20298;-57
2022/01/01 01:35:45;;;;;;;76.90;29.93;;;4.50;99.90;;;;;;4208189;28;20264;-56
2022/01/01 01:37:46;;;;;;;63.23;25.53;;;4.50;99.90;;;;;;4209795;28;20261;-55
2022/01/01 01:39:48;;;;;;;74.77;29.83;;;4.50;99.90;;;;;;4208457;28;20265;-57
2022/01/01 01:41:51;;;;;;;71.80;28.50;;;4.40;99.90;;;;;;4209733;28;20268;-55
2022/01/01 01:43:54;;;;;;;79.30;30.13;;;4.50;99.90;;;;;;4207498;28;20470;-55
2022/01/01 01:45:57;;;;;;;107.90;34.00;;;4.40;99.90;;;;;;4209514;28;20296;-54
2022/01/01 01:47:58;;;;;;;78.73;33.33;;;4.40;99.90;;;;;;4208312;28;20629;-54
2022/01/01 01:50:02;;;;;;;83.30;34.30;;;4.40;99.90;;;;;;4210141;28;20097;-57
2022/01/01 01:52:04;;;;;;;113.30;36.77;;;4.50;99.90;;;;;;4207447;28;20608;-55
2022/01/01 01:54:05;;;;;;;100.70;34.77;;;4.50;99.90;;;;;;4208276;28;20327;-60
2022/01/01 01:56:06;;;;;;;126.77;35.73;;;4.40;99.90;;;;;;4208664;28;20065;-56
2022/01/01 01:58:08;;;;;;;119.13;37.10;;;4.40;99.90;;;;;;4208879;28;20284;-54
2022/01/01 02:00:32;;;;;;;88.73;34.53;;;4.40;99.90;;;;;;4208438;28;20257;-58
2022/01/01 02:02:33;;;;;;;151.33;40.57;;;4.40;99.90;;;;;;4209005;28;20032;-54
2022/01/01 02:04:34;;;;;;;104.37;35.40;;;4.40;99.90;;;;;;4208318;28;20281;-56
2022/01/01 02:06:35;;;;;;;84.77;36.07;;;4.40;99.90;;;;;;4208302;28;21061;-55
2022/01/01 02:08:36;;;;;;;84.70;35.13;;;4.40;99.90;;;;;;4208469;28;20265;-56
2022/01/01 02:10:39;;;;;;;81.80;36.13;;;4.40;99.90;;;;;;4208051;28;20811;-54
2022/01/01 02:12:41;;;;;;;78.93;34.27;;;4.40;99.90;;;;;;4207808;28;20326;-52
2022/01/01 02:15:10;;;;;;;84.20;34.33;;;4.40;99.90;;;;;;4208186;28;20310;-55
2022/01/01 02:17:11;;;;;;;96.87;40.50;;;4.40;99.90;;;;;;4208449;28;20330;-57
2022/01/01 02:19:12;;;;;;;74.40;34.23;;;4.50;99.90;;;;;;4208032;28;20028;-54
2022/01/01 02:21:13;;;;;;;84.43;37.03;;;4.50;99.90;;;;;;4208872;28;20299;-58
2022/01/01 02:23:21;;;;;;;100.00;39.27;;;4.60;99.90;;;;;;4207593;28;20081;-55
2022/01/01 02:25:22;;;;;;;89.17;38.93;;;4.50;99.90;;;;;;4209057;28;20277;-58
2022/01/01 02:27:23;;;;;;;92.40;38.10;;;4.50;99.90;;;;;;4207650;28;20032;-53
2022/01/01 02:29:24;;;;;;;85.97;36.83;;;4.50;99.90;;;;;;4209107;28;20330;-56
2022/01/01 02:31:25;;;;;;;86.93;37.83;;;4.50;99.90;;;;;;4207192;28;20289;-56
2022/01/01 02:33:26;;;;;;;94.53;40.63;;;4.60;99.90;;;;;;4208817;28;20334;-56
2022/01/01 02:35:27;;;;;;;81.13;36.53;;;4.60;99.90;;;;;;4207600;28;20257;-58
2022/01/01 02:37:31;;;;;;;116.33;37.00;;;4.60;99.90;;;;;;4208674;28;20268;-55
2022/01/01 02:39:33;;;;;;;86.60;37.63;;;4.60;99.90;;;;;;4207706;28;20837;-55
2022/01/01 02:41:34;;;;;;;79.50;35.53;;;4.50;99.90;;;;;;4208315;28;20257;-57
2022/01/01 02:43:45;;;;;;;82.00;36.57;;;4.60;99.90;;;;;;4207864;28;20257;-59
2022/01/01 02:45:46;;;;;;;79.97;34.07;;;4.60;99.90;;;;;;4208049;28;20834;-60
2022/01/01 02:47:47;;;;;;;69.63;32.40;;;4.60;99.90;;;;;;4207595;28;20261;-58
2022/01/01 02:49:48;;;;;;;79.40;33.80;;;4.60;99.90;;;;;;4207583;28;20285;-58
2022/01/01 02:51:50;;;;;;;77.43;33.77;;;4.50;99.90;;;;;;4208191;28;20289;-56
2022/01/01 02:53:51;;;;;;;69.37;33.13;;;4.50;99.90;;;;;;4206844;28;20285;-59
2022/01/01 02:55:52;;;;;;;80.47;35.20;;;4.50;99.90;;;;;;4208416;28;20417;-52
2022/01/01 02:57:53;;;;;;;87.20;37.43;;;4.60;99.90;;;;;;4207107;28;20310;-58
2022/01/01 02:59:54;;;;;;;73.60;31.60;;;4.50;99.90;;;;;;4208392;28;21016;-58
2022/01/01 03:01:55;;;;;;;83.87;33.13;;;4.50;99.90;;;;;;4207460;28;20333;-57
2022/01/01 03:03:56;;;;;;;77.83;35.43;;;4.50;99.90;;;;;;4207555;28;20054;-55
2022/01/01 03:05:58;;;;;;;69.07;30.70;;;4.50;99.90;;;;;;4207075;28;20276;-58
2022/01/01 03:07:59;;;;;;;79.10;33.33;;;4.50;99.90;;;;;;4208132;28;20020;-62
2022/01/01 03:10:00;;;;;;;64.07;28.20;;;4.50;99.90;;;;;;4206784;28;20647;-56
2022/01/01 03:12:09;;;;;;;70.40;31.23;;;4.50;99.90;;;;;;4208031;28;20043;-53
2022/01/01 03:14:17;;;;;;;72.53;32.33;;;4.50;99.90;;;;;;4206695;28;20040;-56
2022/01/01 03:16:18;;;;;;;61.47;27.80;;;4.50;99.90;;;;;;4207827;28;20081;-55
2022/01/01 03:18:19;;;;;;;79.70;36.13;;;4.50;99.90;;;;;;4207372;28;21801;-55
2022/01/01 03:20:20;;;;;;;75.27;33.87;;;4.60;99.90;;;;;;4208078;28;20066;-56
2022/01/01 03:22:21;;;;;;;63.70;31.20;;;4.60;99.90;;;;;;4207308;28;20801;-57
2022/01/01 03:24:24;;;;;;;69.23;31.33;;;4.50;99.90;;;;;;4206991;28;20277;-56
2022/01/01 03:26:25;;;;;;;75.83;33.90;;;4.60;99.90;;;;;;4207523;28;20028;-64
2022/01/01 03:28:27;;;;;;;70.67;32.27;;;4.60;99.90;;;;;;4206523;28;20089;-60
2022/01/01 03:30:29;;;;;;;73.37;31.93;;;4.60;99.90;;;;;;4208122;28;20334;-56
2022/01/01 03:32:30;;;;;;;76.67;32.37;;;4.60;99.90;;;;;;4206684;28;20090;-62
2022/01/01 03:34:32;;;;;;;72.77;33.17;;;4.60;99.90;;;;;;4207856;28;21366;-57
2022/01/01 03:36:33;;;;;;;72.50;34.57;;;4.60;99.90;;;;;;4206533;28;20093;-57
2022/01/01 03:38:34;;;;;;;74.27;34.97;;;4.60;99.90;;;;;;4208212;28;20036;-54
2022/01/01 03:40:35;;;;;;;72.47;34.20;;;4.70;99.90;;;;;;4206566;28;20310;-57
2022/01/01 03:42:37;;;;;;;67.63;32.40;;;4.70;99.90;;;;;;4207809;28;20273;-56
2022/01/01 03:44:38;;;;;;;66.60;32.60;;;4.70;99.90;;;;;;4206365;28;20707;-54
2022/01/01 03:46:39;;;;;;;60.53;29.20;;;4.70;99.90;;;;;;4207498;28;20052;-57
2022/01/01 03:48:40;;;;;;;65.90;29.67;;;4.70;99.90;;;;;;4206705;28;20362;-58
2022/01/01 03:50:42;;;;;;;62.73;28.60;;;4.70;99.90;;;;;;4207054;28;20268;-59
2022/01/01 03:52:44;;;;;;;60.53;29.43;;;4.70;99.90;;;;;;4206734;28;20492;-63
2022/01/01 03:54:46;;;;;;;63.37;29.07;;;4.80;99.90;;;;;;4206771;28;20035;-58
2022/01/01 03:56:47;;;;;;;61.70;30.07;;;4.80;99.90;;;;;;4207095;28;20549;-58
2022/01/01 03:58:48;;;;;;;65.63;31.17;;;4.80;99.90;;;;;;4205910;28;20074;-56
2022/01/01 04:00:49;;;;;;;64.47;31.00;;;4.80;99.90;;;;;;4207581;28;20047;-54
2022/01/01 04:02:50;;;;;;;67.13;32.23;;;4.80;99.90;;;;;;4206167;28;20024;-56
2022/01/01 04:04:51;;;;;;;63.67;30.17;;;4.80;99.90;;;;;;4207156;28;20564;-56
2022/01/01 04:06:53;;;;;;;65.10;30.70;;;4.90;99.90;;;;;;4206052;28;20093;-52
2022/01/01 04:08:54;;;;;;;62.23;29.70;;;4.90;99.90;;;;;;4207745;28;20369;-53
2022/01/01 04:10:55;;;;;;;60.70;30.40;;;4.90;99.90;;;;;;4206196;28;20035;-57
2022/01/01 04:13:00;;;;;;;65.97;32.47;;;4.90;99.90;;;;;;4207244;28;20541;-56
2022/01/01 04:15:03;;;;;;;74.17;36.63;;;4.90;99.90;;;;;;4205628;28;20480;-54
2022/01/01 04:17:04;;;;;;;68.77;33.60;;;4.90;99.90;;;;;;4206364;28;20040;-60
2022/01/01 04:19:05;;;;;;;67.80;33.60;;;4.90;99.90;;;;;;4206514;28;20093;-55
2022/01/01 04:21:08;;;;;;;62.67;31.23;;;5.00;99.90;;;;;;4206886;28;20098;-57
2022/01/01 04:23:10;;;;;;;64.40;30.50;;;5.00;99.90;;;;;;4206244;28;20106;-58
2022/01/01 04:25:11;;;;;;;67.30;32.43;;;5.00;99.90;;;;;;4206754;28;20113;-62
2022/01/01 04:27:12;;;;;;;64.47;31.07;;;5.00;99.90;;;;;;4206411;28;20905;-56
2022/01/01 04:29:13;;;;;;;69.10;31.77;;;5.00;99.90;;;;;;4206124;28;20432;-55
2022/01/01 04:31:15;;;;;;;68.03;31.63;;;5.00;99.90;;;;;;4205337;28;20523;-57
2022/01/01 04:33:16;;;;;;;63.50;32.10;;;5.00;99.90;;;;;;4205999;28;20028;-56
2022/01/01 04:35:17;;;;;;;69.30;33.03;;;5.00;99.90;;;;;;4207161;28;20036;-57
2022/01/01 04:37:20;;;;;;;67.83;32.37;;;5.00;99.90;;;;;;4205765;28;20024;-56
2022/01/01 04:39:21;;;;;;;64.37;31.97;;;5.00;99.90;;;;;;4207243;28;20053;-59
2022/01/01 04:41:22;;;;;;;65.83;32.30;;;5.10;99.90;;;;;;4205913;28;20032;-55
2022/01/01 04:43:23;;;;;;;71.23;32.80;;;5.10;99.90;;;;;;4207290;28;20040;-59
2022/01/01 04:45:24;;;;;;;68.90;34.47;;;5.10;99.90;;;;;;4206163;28;20032;-54
2022/01/01 04:47:26;;;;;;;80.03;39.57;;;5.00;99.90;;;;;;4206761;28;20036;-61
2022/01/01 04:49:27;;;;;;;81.47;40.13;;;5.10;99.90;;;;;;4206347;28;20074;-51
2022/01/01 04:51:28;;;;;;;67.17;34.37;;;5.00;99.90;;;;;;4206476;28;20714;-57
2022/01/01 04:53:29;;;;;;;72.77;32.47;;;5.00;99.90;;;;;;4204982;28;20065;-57
2022/01/01 04:55:30;;;;;;;75.47;37.13;;;5.00;99.90;;;;;;4206366;28;20431;-58
2022/01/01 04:57:31;;;;;;;73.00;38.73;;;5.00;99.90;;;;;;4206317;28;20085;-55
2022/01/01 04:59:34;;;;;;;73.13;37.80;;;5.00;99.90;;;;;;4205980;28;20051;-55
2022/01/01 05:01:35;;;;;;;64.23;32.70;;;5.10;99.90;;;;;;4206613;28;20040;-62
2022/01/01 05:03:36;;;;;;;57.63;30.93;;;5.10;99.90;;;;;;4205855;28;20040;-57
2022/01/01 05:05:38;;;;;;;62.57;32.87;;;5.10;99.90;;;;;;4206480;28;20089;-69
2022/01/01 05:07:39;;;;;;;62.47;31.73;;;5.20;99.90;;;;;;4205646;28;20044;-54
2022/01/01 05:09:40;;;;;;;59.90;31.83;;;5.10;99.90;;;;;;4207378;28;20032;-55
2022/01/01 05:11:43;;;;;;;59.70;30.27;;;5.20;99.90;;;;;;4204362;28;20055;-60
2022/01/01 05:13:44;;;;;;;55.30;29.90;;;5.20;99.90;;;;;;4206821;28;20081;-58
2022/01/01 05:15:45;;;;;;;54.87;27.57;;;5.20;99.90;;;;;;4205848;28;20050;-54
2022/01/01 05:17:46;;;;;;;54.03;28.13;;;5.20;99.90;;;;;;4206943;28;20037;-58
2022/01/01 05:19:48;;;;;;;52.43;27.07;;;5.20;99.90;;;;;;4206445;28;20043;-52
2022/01/01 05:21:50;;;;;;;55.80;28.00;;;5.30;99.90;;;;;;4206611;28;20089;-56
2022/01/01 05:23:51;;;;;;;59.20;28.83;;;5.30;99.90;;;;;;4205585;28;20012;-57
2022/01/01 05:25:52;;;;;;;54.57;28.43;;;5.30;99.90;;;;;;4206154;28;20028;-52
2022/01/01 05:27:53;;;;;;;57.53;29.00;;;5.30;99.90;;;;;;4208037;28;20101;-52
2022/01/01 05:29:54;;;;;;;63.93;31.00;;;5.30;99.90;;;;;;4209158;28;20031;-56
2022/01/01 05:31:56;;;;;;;56.63;28.97;;;5.30;99.90;;;;;;4209524;28;20048;-58
2022/01/01 05:33:57;;;;;;;57.00;28.37;;;5.30;99.90;;;;;;4208941;28;20426;-57
2022/01/01 05:35:58;;;;;;;56.60;28.53;;;5.20;99.90;;;;;;4209771;28;20036;-54
2022/01/01 05:37:59;;;;;;;53.10;28.03;;;5.20;99.90;;;;;;4208324;28;20028;-58
2022/01/01 05:40:00;;;;;;;57.53;30.70;;;5.10;99.90;;;;;;4209390;28;20405;-57
2022/01/01 05:42:01;;;;;;;64.93;30.63;;;5.10;99.90;;;;;;4207995;28;20077;-56
2022/01/01 05:44:03;;;;;;;59.27;29.47;;;4.90;99.90;;;;;;4209515;28;20032;-57
2022/01/01 05:46:04;;;;;;;72.90;34.90;;;4.90;99.90;;;;;;4207988;28;20089;-56
2022/01/01 05:48:05;;;;;;;69.07;31.90;;;4.90;99.90;;;;;;4209102;28;20081;-58
2022/01/01 05:50:06;;;;;;;64.50;30.37;;;4.80;99.90;;;;;;4208560;28;20533;-56
2022/01/01 05:52:08;;;;;;;62.53;30.13;;;4.80;99.90;;;;;;4209680;28;20353;-51
2022/01/01 05:54:09;;;;;;;66.77;31.43;;;4.80;99.90;;;;;;4208069;28;20789;-58
2022/01/01 05:56:10;;;;;;;71.10;32.67;;;4.80;99.90;;;;;;4209126;28;20113;-56
2022/01/01 05:58:11;;;;;;;68.43;31.50;;;4.80;99.90;;;;;;4208699;28;20081;-57
2022/01/01 06:00:13;;;;;;;69.67;33.43;;;4.80;99.90;;;;;;4208226;28;20713;-57
2022/01/01 06:02:14;;;;;;;75.03;33.10;;;4.80;99.90;;;;;;4207937;28;20089;-57
2022/01/01 06:04:15;;;;;;;69.83;30.77;;;4.70;99.90;;;;;;4208325;28;20105;-53
2022/01/01 06:06:16;;;;;;;72.20;31.93;;;4.80;99.90;;;;;;4208936;28;20093;-60
2022/01/01 06:08:18;;;;;;;73.80;32.70;;;4.70;99.90;;;;;;4208265;28;20040;-57
2022/01/01 06:10:20;;;;;;;74.60;33.90;;;4.80;99.90;;;;;;4209303;28;20016;-57
2022/01/01 06:12:21;;;;;;;70.40;32.90;;;4.70;99.90;;;;;;4207393;28;20048;-61
2022/01/01 06:14:22;;;;;;;67.27;32.27;;;4.70;99.90;;;;;;4209245;28;20273;-56
2022/01/01 06:16:23;;;;;;;60.60;29.57;;;4.70;99.90;;;;;;4207748;28;20321;-55
2022/01/01 06:18:24;;;;;;;60.03;28.90;;;4.60;99.90;;;;;;4209034;28;20784;-58
2022/01/01 06:20:26;;;;;;;53.97;26.37;;;4.60;99.90;;;;;;4208152;28;20039;-57
2022/01/01 06:22:27;;;;;;;46.07;24.67;;;4.60;99.90;;;;;;4209199;28;20346;-59
2022/01/01 06:24:28;;;;;;;43.87;23.53;;;4.60;99.90;;;;;;4207706;28;20048;-55
2022/01/01 06:26:29;;;;;;;39.23;21.37;;;4.50;99.90;;;;;;4208505;28;21098;-60
2022/01/01 06:28:30;;;;;;;39.87;19.97;;;4.50;99.90;;;;;;4208040;28;20769;-52
2022/01/01 06:30:35;;;;;;;42.60;21.33;;;4.50;99.90;;;;;;4208394;28;21356;-54
2022/01/01 06:32:36;;;;;;;43.23;20.23;;;4.60;99.90;;;;;;4208638;28;20043;-59
2022/01/01 06:34:38;;;;;;;40.60;21.50;;;4.50;99.90;;;;;;4207785;28;20306;-64
2022/01/01 06:36:39;;;;;;;35.00;18.70;;;4.50;99.90;;;;;;4208288;28;20486;-54
2022/01/01 06:38:42;;;;;;;34.40;18.97;;;4.50;99.90;;;;;;4207482;28;20273;-52
2022/01/01 06:40:44;;;;;;;36.77;18.37;;;4.60;99.90;;;;;;4208532;28;20427;-58
2022/01/01 06:42:45;;;;;;;42.73;19.57;;;4.60;99.90;;;;;;4207691;28;20260;-55
2022/01/01 06:44:46;;;;;;;38.17;20.77;;;4.60;99.90;;;;;;4207191;28;20268;-54
2022/01/01 06:46:47;;;;;;;42.00;20.83;;;4.60;99.90;;;;;;4207388;28;20317;-55
2022/01/01 06:48:49;;;;;;;40.10;21.30;;;4.60;99.90;;;;;;4208504;28;20269;-55
2022/01/01 06:50:51;;;;;;;38.67;20.07;;;4.60;99.90;;;;;;4207678;28;20265;-55
2022/01/01 06:52:52;;;;;;;39.20;20.13;;;4.60;99.90;;;;;;4208282;28;20686;-56
2022/01/01 06:54:53;;;;;;;43.37;22.40;;;4.60;99.90;;;;;;4207097;28;20265;-54
2022/01/01 06:56:54;;;;;;;50.40;23.10;;;4.60;99.90;;;;;;4208529;28;20321;-55
2022/01/01 06:58:56;;;;;;;40.67;21.40;;;4.60;99.90;;;;;;4205721;28;20256;-55
2022/01/01 07:00:57;;;;;;;37.20;19.87;;;4.60;99.90;;;;;;4208008;28;20260;-58
2022/01/01 07:02:58;;;;;;;37.10;21.30;;;4.60;99.90;;;;;;4207932;28;20786;-53
2022/01/01 07:04:59;;;;;;;35.87;20.20;;;4.60;99.90;;;;;;4207299;28;20276;-54
2022/01/01 07:07:00;;;;;;;47.70;22.43;;;4.60;99.90;;;;;;4207634;28;20061;-57
2022/01/01 07:09:01;;;;;;;39.67;20.83;;;4.70;99.90;;;;;;4206926;28;20683;-54
2022/01/01 07:11:02;;;;;;;44.37;23.87;;;4.70;99.90;;;;;;4208225;28;20371;-57
2022/01/01 07:13:04;;;;;;;43.93;24.33;;;4.70;99.90;;;;;;4206593;28;20308;-56
2022/01/01 07:15:06;;;;;;;42.23;23.47;;;4.80;99.90;;;;;;4207039;28;20035;-56
2022/01/01 07:17:07;;;;;;;40.77;22.33;;;4.70;99.90;;;;;;4206944;28;20322;-57
2022/01/01 07:19:08;;;;;;;40.03;21.37;;;4.80;99.90;;;;;;4208441;28;20027;-55
2022/01/01 07:21:09;;;;;;;41.47;21.43;;;4.80;99.90;;;;;;4206887;28;20077;-54
2022/01/01 07:23:11;;;;;;;38.13;20.97;;;4.80;99.90;;;;;;4207538;28;20264;-56
2022/01/01 07:25:13;;;;;;;42.10;21.70;;;4.80;99.90;;;;;;4206288;28;20297;-56
2022/01/01 07:27:14;;;;;;;39.63;20.40;;;4.80;99.90;;;;;;4208092;28;20671;-55
2022/01/01 07:29:15;;;;;;;36.23;20.17;;;4.90;99.90;;;;;;4206163;28;20113;-56
2022/01/01 07:31:18;;;;;;;37.80;20.80;;;4.90;99.90;;;;;;4207521;28;20113;-54
2022/01/01 07:33:19;;;;;;;44.33;22.87;;;5.00;99.90;;;;;;4206869;28;20085;-55
2022/01/01 07:35:22;;;;;;;42.77;20.93;;;5.00;99.90;;;;;;4207091;28;20881;-60
2022/01/01 07:37:23;;;;;;;37.67;21.03;;;5.10;99.90;;;;;;4207750;28;20062;-55
2022/01/01 07:39:24;;;;;;;37.50;20.30;;;5.10;99.90;;;;;;4206686;28;20028;-56
2022/01/01 07:41:25;;;;;;;38.30;20.93;;;5.10;99.90;;;;;;4207906;28;20028;-56
2022/01/01 07:43:29;;;;;;;34.90;19.73;;;5.20;99.90;;;;;;4206728;28;20081;-62
2022/01/01 07:45:30;;;;;;;34.40;18.83;;;5.20;99.90;;;;;;4207269;28;20571;-56
2022/01/01 07:47:32;;;;;;;36.00;20.27;;;5.20;99.90;;;;;;4206482;28;20032;-56
2022/01/01 07:49:33;;;;;;;35.17;18.83;;;5.20;99.90;;;;;;4207649;28;20082;-58
2022/01/01 07:51:34;;;;;;;38.83;19.67;;;5.30;99.90;;;;;;4206226;28;20044;-52
2022/01/01 07:53:35;;;;;;;34.70;18.30;;;5.30;99.90;;;;;;4207566;28;20035;-56
2022/01/01 07:55:36;;;;;;;37.70;20.50;;;5.30;99.90;;;;;;4206207;28;20028;-60
2022/01/01 07:57:38;;;;;;;36.83;20.23;;;5.30;99.90;;;;;;4207992;28;20036;-58
2022/01/01 07:59:39;;;;;;;40.33;21.90;;;5.40;99.90;;;;;;4206342;28;20085;-57
2022/01/01 08:01:40;;;;;;;38.80;21.67;;;5.40;99.90;;;;;;4207211;28;20811;-54
2022/01/01 08:03:41;;;;;;;38.93;22.10;;;5.40;99.90;;;;;;4206567;28;20104;-56
2022/01/01 08:05:42;;;;;;;45.70;24.07;;;5.50;99.90;;;;;;4207022;28;20050;-57
2022/01/01 08:07:45;;;;;;;39.97;22.20;;;5.50;99.90;;;;;;4206948;28;20148;-52
2022/01/01 08:09:46;;;;;;;46.10;23.27;;;5.50;99.90;;;;;;4206182;28;20032;-61
2022/01/01 08:11:47;;;;;;;47.07;24.87;;;5.60;99.90;;;;;;4206833;28;20056;-58
2022/01/01 08:13:48;;;;;;;43.20;23.60;;;5.70;99.90;;;;;;4205775;28;20040;-56
2022/01/01 08:15:51;;;;;;;41.73;22.50;;;5.70;99.90;;;;;;4207239;28;20105;-58
2022/01/01 08:17:52;;;;;;;40.20;22.00;;;5.70;99.90;;;;;;4205688;28;20820;-58
2022/01/01 08:19:53;;;;;;;45.17;23.47;;;5.70;99.90;;;;;;4208127;28;20043;-55
2022/01/01 08:21:55;;;;;;;51.33;24.87;;;5.70;99.90;;;;;;4206385;28;20430;-53
2022/01/01 08:23:56;;;;;;;46.67;26.30;;;5.80;99.90;;;;;;4206659;28;20052;-58
2022/01/01 08:25:58;;;;;;;47.93;26.97;;;5.90;99.90;;;;;;4205886;28;20040;-57
2022/01/01 08:27:59;;;;;;;51.57;28.13;;;6.00;99.90;;;;;;4207373;28;20105;-57
2022/01/01 08:30:01;;;;;;;53.70;27.80;;;6.10;99.90;;;;;;4205475;28;20082;-56
2022/01/01 08:32:02;;;;;;;58.03;29.27;;;6.30;99.90;;;;;;4206886;28;20036;-57
2022/01/01 08:34:03;;;;;;;53.50;30.57;;;6.30;99.90;;;;;;4204802;28;20040;-56
2022/01/01 08:36:05;;;;;;;63.70;33.00;;;6.40;99.90;;;;;;4206596;28;20039;-57
2022/01/01 08:38:06;;;;;;;55.63;29.73;;;6.50;99.90;;;;;;4206296;28;20028;-57
2022/01/01 08:40:08;;;;;;;47.37;27.20;;;6.50;99.90;;;;;;4206498;28;20028;-53
2022/01/01 08:42:10;;;;;;;50.13;29.10;;;6.60;99.90;;;;;;4206869;28;20040;-58
2022/01/01 08:44:13;;;;;;;54.47;29.87;;;6.60;99.90;;;;;;4205628;28;20081;-56
2022/01/01 08:46:14;;;;;;;58.37;31.27;;;6.80;99.90;;;;;;4207070;28;20377;-54
2022/01/01 08:48:15;;;;;;;61.00;33.13;;;6.90;99.90;;;;;;4204744;28;20524;-60
2022/01/01 08:50:17;;;;;;;56.87;30.03;;;7.10;99.90;;;;;;4207379;28;20036;-57
2022/01/01 08:52:18;;;;;;;64.33;31.57;;;7.20;99.90;;;;;;4205632;28;20044;-56
2022/01/01 08:54:19;;;;;;;54.87;30.77;;;7.10;99.90;;;;;;4206475;28;20105;-58
2022/01/01 08:56:20;;;;;;;59.07;33.07;;;7.20;99.90;;;;;;4205943;28;20097;-58
2022/01/01 08:58:21;;;;;;;72.90;36.80;;;7.30;99.90;;;;;;4206568;28;20040;-53
2022/01/01 09:00:23;;;;;;;74.17;36.10;;;7.40;99.90;;;;;;4205135;28;20500;-59
2022/01/01 09:02:24;;;;;;;56.83;31.33;;;7.50;99.90;;;;;;4207950;28;20032;-58
2022/01/01 09:04:25;;;;;;;61.17;32.83;;;7.60;99.90;;;;;;4208333;28;20468;-58
2022/01/01 09:06:26;;;;;;;56.90;31.87;;;7.70;99.90;;;;;;4209572;28;20027;-58
2022/01/01 09:08:29;;;;;;;65.47;33.23;;;7.70;99.90;;;;;;4208955;28;20069;-58
2022/01/01 09:10:30;;;;;;;61.53;33.47;;;7.70;99.90;;;;;;4209283;28;20089;-57
2022/01/01 09:12:31;;;;;;;64.60;34.50;;;7.70;99.90;;;;;;4209193;28;20632;-57
2022/01/01 09:14:33;;;;;;;69.13;35.23;;;7.90;99.90;;;;;;4208603;28;20036;-57
2022/01/01 09:16:34;;;;;;;63.57;34.33;;;7.90;99.90;;;;;;4210030;28;20482;-59
2022/01/01 09:18:35;;;;;;;69.93;35.83;;;8.00;99.90;;;;;;4208579;28;20058;-54
2022/01/01 09:20:36;;;;;;;58.77;32.00;;;8.10;99.90;;;;;;4209967;28;20161;-58
2022/01/01 09:22:37;;;;;;;63.40;32.80;;;8.20;99.90;;;;;;4208501;28;20031;-56
2022/01/01 09:24:39;;;;;;;52.40;28.53;;;8.20;99.90;;;;;;4209941;28;20791;-53
2022/01/01 09:26:40;;;;;;;57.37;30.50;;;8.30;99.90;;;;;;4207922;28;20036;-61
2022/01/01 09:28:41;;;;;;;59.63;32.50;;;8.40;99.90;;;;;;4209372;28;20040;-54
2022/01/01 09:30:42;;;;;;;63.03;32.90;;;8.40;99.90;;;;;;4208245;28;20069;-54
2022/01/01 09:32:43;;;;;;;57.63;30.93;;;8.60;99.90;;;;;;4209402;28;20040;-55
2022/01/01 09:34:44;;;;;;;58.33;31.57;;;8.60;99.90;;;;;;4208288;28;20385;-61
2022/01/01 09:36:47;;;;;;;49.90;28.73;;;8.70;99.90;;;;;;4209223;28;20035;-62
2022/01/01 09:38:48;;;;;;;43.57;24.07;;;8.80;99.90;;;;;;4208668;28;20098;-54
2022/01/01 09:40:54;;;;;;;43.17;21.43;;;8.80;99.90;;;;;;4208263;28;20028;-56
2022/01/01 09:42:56;;;;;;;48.23;26.67;;;8.90;99.90;;;;;;4209029;28;20023;-57
2022/01/01 09:44:58;;;;;;;44.73;24.53;;;9.00;99.90;;;;;;4208524;28;20081;-52
2022/01/01 09:46:59;;;;;;;38.83;21.47;;;9.00;99.90;;;;;;4208977;28;20028;-56
2022/01/01 09:49:00;;;;;;;48.67;26.43;;;9.10;99.90;;;;;;4208210;28;20089;-56
2022/01/01 09:51:03;;;;;;;34.90;21.13;;;9.20;99.90;;;;;;4209601;28;20032;-60
2022/01/01 09:53:04;;;;;;;26.70;14.57;;;9.30;99.90;;;;;;4207648;28;20549;-60
2022/01/01 09:55:07;;;;;;;33.87;21.43;;;9.40;99.90;;;;;;4208704;28;20526;-58
2022/01/01 09:57:10;;;;;;;47.73;27.90;;;9.50;99.90;;;;;;4208327;28;20024;-55
2022/01/01 09:59:14;;;;;;;48.63;28.80;;;9.60;99.90;;;;;;4209009;28;20097;-54
2022/01/01 10:01:15;;;;;;;39.83;24.90;;;9.80;99.90;;;;;;4207823;28;20028;-56
2022/01/01 10:03:17;;;;;;;32.50;20.73;;;9.80;99.90;;;;;;4209226;28;20032;-54
2022/01/01 10:05:18;;;;;;;24.60;15.83;;;9.90;99.90;;;;;;4207455;28;20430;-54
2022/01/01 10:07:28;;;;;;;18.93;13.17;;;10.10;99.90;;;;;;4208791;28;20117;-59
2022/01/01 10:09:32;;;;;;;13.60;8.57;;;10.10;99.90;;;;;;4207576;28;20032;-61
2022/01/01 10:11:33;;;;;;;11.27;7.70;;;10.20;99.90;;;;;;4209017;28;20086;-57
2022/01/01 10:13:37;;;;;;;11.50;7.67;;;10.30;99.90;;;;;;4207112;28;20085;-61
2022/01/01 10:15:38;;;;;;;11.63;7.37;;;10.30;99.90;;;;;;4208387;28;20583;-56
2022/01/01 10:17:41;;;;;;;10.30;6.13;;;10.50;99.90;;;;;;4208114;28;20423;-58
2022/01/01 10:19:43;;;;;;;10.90;5.87;;;10.50;99.90;;;;;;4206924;28;20519;-62
2022/01/01 10:21:50;;;;;;;14.73;7.60;;;10.60;99.90;;;;;;4208586;28;20058;-80
2022/01/01 10:23:54;;;;;;;15.17;8.67;;;10.60;99.90;;;;;;4207993;28;20032;-72